sensor_id;sensor_type;location;lat;lon;timestamp;temperature;humidity
70368;DHT22;57789;53.868;10.728;2023-03-29T00:01:23;5.10;99.90
70368;DHT22;57789;53.868;10.728;2023-03-29T00:03:50;5.00;99.90
70368;DHT22;57789;53.868;10.728;2023-03-29T00:06:16;4.90;99.90
70368;DHT22;57789;53.868;10.728;2023-03-29T00:08:47;4.90;99.90
70368;DHT22;57789;53.868;10.728;2023-03-29T00:11:19;4.90;99.90
70368;DHT22;57789;53.868;10.728;2023-03-29T00:13:44;4.90;99.90
70368;DHT22;57789;53.868;10.728;2023-03-29T00:16:11;4.90;99.90
70368;DHT22;57789;53.868;10.728;2023-03-29T00:18:38;4.90;99.90
70368;DHT22;57789;53.868;10.728;2023-03-29T00:21:04;4.90;99.90
70368;DHT22;57789;53.868;10.728;2023-03-29T00:23:30;4.90;99.90
70368;DHT22;57789;53.868;10.728;2023-03-29T00:25:56;4.80;99.90
70368;DHT22;57789;53.868;10.728;2023-03-29T00:28:22;4.80;99.90
70368;DHT22;57789;53.868;10.728;2023-03-29T00:30:47;4.70;99.90
70368;DHT22;57789;53.868;10.728;2023-03-29T00:33:16;4.80;99.90
70368;DHT22;57789;53.868;10.728;2023-03-29T00:35:43;4.70;99.90
70368;DHT22;57789;53.868;10.728;2023-03-29T00:38:09;4.70;99.90
70368;DHT22;57789;53.868;10.728;2023-03-29T00:40:41;4.70;99.90
70368;DHT22;57789;53.868;10.728;2023-03-29T00:43:10;4.70;99.90
70368;DHT22;57789;53.868;10.728;2023-03-29T00:45:36;4.70;99.90
70368;DHT22;57789;53.868;10.728;2023-03-29T00:48:04;4.70;99.90
70368;DHT22;57789;53.868;10.728;2023-03-29T00:50:47;4.70;99.90
70368;DHT22;57789;53.868;10.728;2023-03-29T00:55:50;4.60;99.90
70368;DHT22;57789;53.868;10.728;2023-03-29T00:58:21;4.60;99.90
70368;DHT22;57789;53.868;10.728;2023-03-29T01:01:00;4.50;99.90
70368;DHT22;57789;53.868;10.728;2023-03-29T01:03:32;4.50;99.90
70368;DHT22;57789;53.868;10.728;2023-03-29T01:06:03;4.50;99.90
70368;DHT22;57789;53.868;10.728;2023-03-29T01:08:54;4.40;99.90
70368;DHT22;57789;53.868;10.728;2023-03-29T01:11:35;4.40;99.90
70368;DHT22;57789;53.868;10.728;2023-03-29T01:14:20;4.40;99.90
70368;DHT22;57789;53.868;10.728;2023-03-29T01:16:47;4.40;99.90
70368;DHT22;57789;53.868;10.728;2023-03-29T01:19:16;4.30;99.90
70368;DHT22;57789;53.868;10.728;2023-03-29T01:21:52;4.30;99.90
70368;DHT22;57789;53.868;10.728;2023-03-29T01:29:46;4.30;99.90
70368;DHT22;57789;53.868;10.728;2023-03-29T01:32:29;4.30;99.90
70368;DHT22;57789;53.868;10.728;2023-03-29T01:35:07;4.30;99.90
70368;DHT22;57789;53.868;10.728;2023-03-29T01:40:26;4.30;99.90
70368;DHT22;57789;53.868;10.728;2023-03-29T01:43:25;4.30;99.90
70368;DHT22;57789;53.868;10.728;2023-03-29T01:46:00;4.20;99.90
70368;DHT22;57789;53.868;10.728;2023-03-29T01:48:56;4.20;99.90
70368;DHT22;57789;53.868;10.728;2023-03-29T01:51:35;4.20;99.90
70368;DHT22;57789;53.868;10.728;2023-03-29T01:54:18;4.20;99.90
70368;DHT22;57789;53.868;10.728;2023-03-29T01:56:46;4.10;99.90
70368;DHT22;57789;53.868;10.728;2023-03-29T01:59:17;4.10;99.90
70368;DHT22;57789;53.868;10.728;2023-03-29T02:01:49;4.20;99.90
70368;DHT22;57789;53.868;10.728;2023-03-29T02:04:23;4.30;99.90
70368;DHT22;57789;53.868;10.728;2023-03-29T02:06:50;4.30;99.90
70368;DHT22;57789;53.868;10.728;2023-03-29T02:09:18;4.40;99.90
70368;DHT22;57789;53.868;10.728;2023-03-29T02:11:45;4.50;99.90
70368;DHT22;57789;53.868;10.728;2023-03-29T02:14:11;4.50;99.90
70368;DHT22;57789;53.868;10.728;2023-03-29T02:16:38;4.50;99.90
70368;DHT22;57789;53.868;10.728;2023-03-29T02:19:05;4.50;99.90
70368;DHT22;57789;53.868;10.728;2023-03-29T02:24:07;4.40;99.90
70368;DHT22;57789;53.868;10.728;2023-03-29T02:26:33;4.30;99.90
70368;DHT22;57789;53.868;10.728;2023-03-29T02:28:59;4.20;99.90
70368;DHT22;57789;53.868;10.728;2023-03-29T02:31:35;4.20;99.90
70368;DHT22;57789;53.868;10.728;2023-03-29T02:34:19;4.10;99.90
70368;DHT22;57789;53.868;10.728;2023-03-29T02:36:50;4.10;99.90
70368;DHT22;57789;53.868;10.728;2023-03-29T02:39:17;4.00;99.90
70368;DHT22;57789;53.868;10.728;2023-03-29T02:41:45;4.00;99.90
70368;DHT22;57789;53.868;10.728;2023-03-29T02:44:17;4.10;99.90
70368;DHT22;57789;53.868;10.728;2023-03-29T02:46:44;4.10;99.90
70368;DHT22;57789;53.868;10.728;2023-03-29T02:49:13;4.10;99.90
70368;DHT22;57789;53.868;10.728;2023-03-29T02:51:39;4.10;99.90
70368;DHT22;57789;53.868;10.728;2023-03-29T02:54:20;4.10;99.90
70368;DHT22;57789;53.868;10.728;2023-03-29T02:56:53;4.00;99.90
70368;DHT22;57789;53.868;10.728;2023-03-29T02:59:19;4.00;99.90
70368;DHT22;57789;53.868;10.728;2023-03-29T03:01:47;4.00;99.90
70368;DHT22;57789;53.868;10.728;2023-03-29T03:04:13;4.00;99.90
70368;DHT22;57789;53.868;10.728;2023-03-29T03:06:39;3.90;99.90
70368;DHT22;57789;53.868;10.728;2023-03-29T03:09:05;3.90;99.90
70368;DHT22;57789;53.868;10.728;2023-03-29T03:11:32;3.90;99.90
70368;DHT22;57789;53.868;10.728;2023-03-29T03:13:58;3.90;99.90
70368;DHT22;57789;53.868;10.728;2023-03-29T03:16:24;3.90;99.90
70368;DHT22;57789;53.868;10.728;2023-03-29T03:18:51;3.90;99.90
70368;DHT22;57789;53.868;10.728;2023-03-29T03:21:17;3.90;99.90
70368;DHT22;57789;53.868;10.728;2023-03-29T03:23:43;4.00;99.90
70368;DHT22;57789;53.868;10.728;2023-03-29T03:26:10;4.10;99.90
70368;DHT22;57789;53.868;10.728;2023-03-29T03:28:36;4.00;99.90
70368;DHT22;57789;53.868;10.728;2023-03-29T03:31:03;4.00;99.90
70368;DHT22;57789;53.868;10.728;2023-03-29T03:33:29;4.00;99.90
70368;DHT22;57789;53.868;10.728;2023-03-29T03:35:55;3.90;99.90
70368;DHT22;57789;53.868;10.728;2023-03-29T03:38:33;3.90;99.90
70368;DHT22;57789;53.868;10.728;2023-03-29T03:40:59;3.90;99.90
70368;DHT22;57789;53.868;10.728;2023-03-29T03:43:26;3.80;99.90
70368;DHT22;57789;53.868;10.728;2023-03-29T03:45:54;3.80;99.90
70368;DHT22;57789;53.868;10.728;2023-03-29T03:48:20;3.70;99.90
70368;DHT22;57789;53.868;10.728;2023-03-29T03:50:51;3.70;99.90
70368;DHT22;57789;53.868;10.728;2023-03-29T03:53:18;3.70;99.90
70368;DHT22;57789;53.868;10.728;2023-03-29T03:55:48;3.60;99.90
70368;DHT22;57789;53.868;10.728;2023-03-29T03:58:16;3.60;99.90
70368;DHT22;57789;53.868;10.728;2023-03-29T04:00:42;3.60;99.90
70368;DHT22;57789;53.868;10.728;2023-03-29T04:03:09;3.60;99.90
70368;DHT22;57789;53.868;10.728;2023-03-29T04:05:39;3.60;99.90
70368;DHT22;57789;53.868;10.728;2023-03-29T04:08:05;3.50;99.90
70368;DHT22;57789;53.868;10.728;2023-03-29T04:10:34;3.50;99.90
70368;DHT22;57789;53.868;10.728;2023-03-29T04:13:02;3.50;99.90
70368;DHT22;57789;53.868;10.728;2023-03-29T04:15:30;3.40;99.90
70368;DHT22;57789;53.868;10.728;2023-03-29T04:17:57;3.40;99.90
70368;DHT22;57789;53.868;10.728;2023-03-29T04:20:23;3.40;99.90
70368;DHT22;57789;53.868;10.728;2023-03-29T04:22:49;3.40;99.90
70368;DHT22;57789;53.868;10.728;2023-03-29T04:25:15;3.40;99.90
70368;DHT22;57789;53.868;10.728;2023-03-29T04:27:41;3.30;99.90
70368;DHT22;57789;53.868;10.728;2023-03-29T04:30:08;3.40;99.90
70368;DHT22;57789;53.868;10.728;2023-03-29T04:32:34;3.50;99.90
70368;DHT22;57789;53.868;10.728;2023-03-29T04:35:00;3.50;99.90
70368;DHT22;57789;53.868;10.728;2023-03-29T04:37:26;3.40;99.90
70368;DHT22;57789;53.868;10.728;2023-03-29T04:39:52;3.50;99.90
70368;DHT22;57789;53.868;10.728;2023-03-29T04:42:18;3.60;99.90
70368;DHT22;57789;53.868;10.728;2023-03-29T04:44:44;3.50;99.90
70368;DHT22;57789;53.868;10.728;2023-03-29T04:47:10;3.50;99.90
70368;DHT22;57789;53.868;10.728;2023-03-29T04:49:38;3.40;99.90
70368;DHT22;57789;53.868;10.728;2023-03-29T04:52:04;3.50;99.90
70368;DHT22;57789;53.868;10.728;2023-03-29T04:54:30;3.40;99.90
70368;DHT22;57789;53.868;10.728;2023-03-29T04:56:56;3.40;99.90
70368;DHT22;57789;53.868;10.728;2023-03-29T04:59:22;3.50;99.90
70368;DHT22;57789;53.868;10.728;2023-03-29T05:01:47;3.60;99.90
70368;DHT22;57789;53.868;10.728;2023-03-29T05:04:13;3.50;99.90
70368;DHT22;57789;53.868;10.728;2023-03-29T05:06:39;3.50;99.90
70368;DHT22;57789;53.868;10.728;2023-03-29T05:09:05;3.50;99.90
70368;DHT22;57789;53.868;10.728;2023-03-29T05:11:33;3.50;99.90
70368;DHT22;57789;53.868;10.728;2023-03-29T05:13:59;3.50;99.90
70368;DHT22;57789;53.868;10.728;2023-03-29T05:16:30;3.50;99.90
70368;DHT22;57789;53.868;10.728;2023-03-29T05:18:57;3.60;99.90
70368;DHT22;57789;53.868;10.728;2023-03-29T05:21:23;3.60;99.90
70368;DHT22;57789;53.868;10.728;2023-03-29T05:23:50;3.70;99.90
70368;DHT22;57789;53.868;10.728;2023-03-29T05:26:17;3.70;99.90
70368;DHT22;57789;53.868;10.728;2023-03-29T05:28:43;3.80;99.90
70368;DHT22;57789;53.868;10.728;2023-03-29T05:31:09;3.90;99.90
70368;DHT22;57789;53.868;10.728;2023-03-29T05:33:35;3.80;99.90
70368;DHT22;57789;53.868;10.728;2023-03-29T05:36:06;4.00;99.90
70368;DHT22;57789;53.868;10.728;2023-03-29T05:38:32;4.10;99.90
70368;DHT22;57789;53.868;10.728;2023-03-29T05:40:58;4.00;99.90
70368;DHT22;57789;53.868;10.728;2023-03-29T05:43:25;4.00;99.90
70368;DHT22;57789;53.868;10.728;2023-03-29T05:45:52;3.90;99.90
70368;DHT22;57789;53.868;10.728;2023-03-29T05:48:19;3.90;99.90
70368;DHT22;57789;53.868;10.728;2023-03-29T05:50:49;4.00;99.90
70368;DHT22;57789;53.868;10.728;2023-03-29T05:53:18;4.00;99.90
70368;DHT22;57789;53.868;10.728;2023-03-29T05:55:44;4.00;99.90
70368;DHT22;57789;53.868;10.728;2023-03-29T05:58:11;4.10;99.90
70368;DHT22;57789;53.868;10.728;2023-03-29T06:00:38;4.00;99.90
70368;DHT22;57789;53.868;10.728;2023-03-29T06:03:05;4.10;99.90
70368;DHT22;57789;53.868;10.728;2023-03-29T06:05:32;4.10;99.90
70368;DHT22;57789;53.868;10.728;2023-03-29T06:07:57;4.10;99.90
70368;DHT22;57789;53.868;10.728;2023-03-29T06:10:23;4.10;99.90
70368;DHT22;57789;53.868;10.728;2023-03-29T06:12:49;4.10;99.90
70368;DHT22;57789;53.868;10.728;2023-03-29T06:15:16;4.20;99.90
70368;DHT22;57789;53.868;10.728;2023-03-29T06:17:42;4.20;99.90
70368;DHT22;57789;53.868;10.728;2023-03-29T06:20:10;4.20;99.90
70368;DHT22;57789;53.868;10.728;2023-03-29T06:22:37;4.20;99.90
70368;DHT22;57789;53.868;10.728;2023-03-29T06:25:07;4.30;99.90
70368;DHT22;57789;53.868;10.728;2023-03-29T06:27:35;4.20;99.90
70368;DHT22;57789;53.868;10.728;2023-03-29T06:30:02;4.40;99.90
70368;DHT22;57789;53.868;10.728;2023-03-29T06:32:28;4.40;99.90
70368;DHT22;57789;53.868;10.728;2023-03-29T06:34:54;4.50;99.90
70368;DHT22;57789;53.868;10.728;2023-03-29T06:37:20;4.50;99.90
70368;DHT22;57789;53.868;10.728;2023-03-29T06:39:47;4.60;99.90
70368;DHT22;57789;53.868;10.728;2023-03-29T06:42:19;4.60;99.90
70368;DHT22;57789;53.868;10.728;2023-03-29T06:44:45;4.70;99.90
70368;DHT22;57789;53.868;10.728;2023-03-29T06:47:12;4.80;99.90
70368;DHT22;57789;53.868;10.728;2023-03-29T06:49:38;4.90;99.90
70368;DHT22;57789;53.868;10.728;2023-03-29T06:52:04;5.10;99.90
70368;DHT22;57789;53.868;10.728;2023-03-29T06:54:30;5.10;99.90
70368;DHT22;57789;53.868;10.728;2023-03-29T06:56:56;5.20;99.90
70368;DHT22;57789;53.868;10.728;2023-03-29T06:59:22;5.30;99.90
70368;DHT22;57789;53.868;10.728;2023-03-29T07:01:47;5.30;99.90
70368;DHT22;57789;53.868;10.728;2023-03-29T07:04:13;5.40;99.90
70368;DHT22;57789;53.868;10.728;2023-03-29T07:06:39;5.50;99.90
70368;DHT22;57789;53.868;10.728;2023-03-29T07:09:05;5.40;99.90
70368;DHT22;57789;53.868;10.728;2023-03-29T07:11:32;5.40;99.90
70368;DHT22;57789;53.868;10.728;2023-03-29T07:14:00;5.40;99.90
70368;DHT22;57789;53.868;10.728;2023-03-29T07:16:27;5.40;99.90
70368;DHT22;57789;53.868;10.728;2023-03-29T07:18:53;5.60;99.90
70368;DHT22;57789;53.868;10.728;2023-03-29T07:21:19;5.60;99.90
70368;DHT22;57789;53.868;10.728;2023-03-29T07:23:45;5.60;99.90
70368;DHT22;57789;53.868;10.728;2023-03-29T07:26:11;5.60;99.90
70368;DHT22;57789;53.868;10.728;2023-03-29T07:28:37;5.70;99.90
70368;DHT22;57789;53.868;10.728;2023-03-29T07:31:09;5.80;99.90
70368;DHT22;57789;53.868;10.728;2023-03-29T07:33:36;5.90;99.90
70368;DHT22;57789;53.868;10.728;2023-03-29T07:36:03;6.10;99.90
70368;DHT22;57789;53.868;10.728;2023-03-29T07:38:29;6.20;99.90
70368;DHT22;57789;53.868;10.728;2023-03-29T07:40:56;6.30;99.90
70368;DHT22;57789;53.868;10.728;2023-03-29T07:43:22;6.30;99.90
70368;DHT22;57789;53.868;10.728;2023-03-29T07:45:49;6.30;99.90
70368;DHT22;57789;53.868;10.728;2023-03-29T07:48:16;6.40;99.90
70368;DHT22;57789;53.868;10.728;2023-03-29T07:50:43;6.40;99.90
70368;DHT22;57789;53.868;10.728;2023-03-29T07:53:09;6.60;99.90
70368;DHT22;57789;53.868;10.728;2023-03-29T07:55:35;6.70;99.90
70368;DHT22;57789;53.868;10.728;2023-03-29T07:58:00;6.70;99.90
70368;DHT22;57789;53.868;10.728;2023-03-29T08:00:26;6.90;99.90
70368;DHT22;57789;53.868;10.728;2023-03-29T08:02:52;6.80;99.90
70368;DHT22;57789;53.868;10.728;2023-03-29T08:05:20;6.90;99.90
70368;DHT22;57789;53.868;10.728;2023-03-29T08:07:47;6.80;99.90
70368;DHT22;57789;53.868;10.728;2023-03-29T08:10:18;6.80;99.90
70368;DHT22;57789;53.868;10.728;2023-03-29T08:12:46;6.80;99.90
70368;DHT22;57789;53.868;10.728;2023-03-29T08:15:12;6.90;99.90
70368;DHT22;57789;53.868;10.728;2023-03-29T08:17:40;7.10;99.90
70368;DHT22;57789;53.868;10.728;2023-03-29T08:20:08;7.10;99.90
70368;DHT22;57789;53.868;10.728;2023-03-29T08:22:35;7.10;99.90
70368;DHT22;57789;53.868;10.728;2023-03-29T08:25:01;7.20;99.90
70368;DHT22;57789;53.868;10.728;2023-03-29T08:27:27;7.30;99.90
70368;DHT22;57789;53.868;10.728;2023-03-29T08:29:53;7.30;99.90
70368;DHT22;57789;53.868;10.728;2023-03-29T08:32:19;7.40;99.90
70368;DHT22;57789;53.868;10.728;2023-03-29T08:34:45;7.40;99.90
70368;DHT22;57789;53.868;10.728;2023-03-29T08:37:11;7.30;99.90
70368;DHT22;57789;53.868;10.728;2023-03-29T08:39:37;7.50;99.90
70368;DHT22;57789;53.868;10.728;2023-03-29T08:45:15;7.60;99.90
70368;DHT22;57789;53.868;10.728;2023-03-29T08:50:18;7.60;99.90
70368;DHT22;57789;53.868;10.728;2023-03-29T08:52:51;7.70;99.90
70368;DHT22;57789;53.868;10.728;2023-03-29T08:55:39;7.80;99.90
70368;DHT22;57789;53.868;10.728;2023-03-29T08:58:10;7.70;99.90
70368;DHT22;57789;53.868;10.728;2023-03-29T09:00:41;7.80;99.90
70368;DHT22;57789;53.868;10.728;2023-03-29T09:05:52;8.10;99.90
70368;DHT22;57789;53.868;10.728;2023-03-29T09:08:20;8.00;99.90
70368;DHT22;57789;53.868;10.728;2023-03-29T09:16:53;8.50;99.90
70368;DHT22;57789;53.868;10.728;2023-03-29T09:19:38;8.40;99.90
70368;DHT22;57789;53.868;10.728;2023-03-29T09:22:43;8.50;99.90
70368;DHT22;57789;53.868;10.728;2023-03-29T09:25:16;8.50;99.90
70368;DHT22;57789;53.868;10.728;2023-03-29T09:32:59;8.80;99.90
70368;DHT22;57789;53.868;10.728;2023-03-29T09:38:17;9.00;99.90
70368;DHT22;57789;53.868;10.728;2023-03-29T09:40:49;8.90;99.90
70368;DHT22;57789;53.868;10.728;2023-03-29T09:43:22;8.70;99.90
70368;DHT22;57789;53.868;10.728;2023-03-29T09:45:52;8.60;99.90
70368;DHT22;57789;53.868;10.728;2023-03-29T09:48:20;8.60;99.90
70368;DHT22;57789;53.868;10.728;2023-03-29T09:50:48;8.50;99.90
70368;DHT22;57789;53.868;10.728;2023-03-29T09:53:19;8.30;99.90
70368;DHT22;57789;53.868;10.728;2023-03-29T09:55:47;8.30;99.90
70368;DHT22;57789;53.868;10.728;2023-03-29T09:58:19;8.30;99.90
70368;DHT22;57789;53.868;10.728;2023-03-29T10:00:47;8.20;99.90
70368;DHT22;57789;53.868;10.728;2023-03-29T10:03:26;8.30;99.90
70368;DHT22;57789;53.868;10.728;2023-03-29T10:05:55;8.40;99.90
70368;DHT22;57789;53.868;10.728;2023-03-29T10:08:28;8.30;99.90
70368;DHT22;57789;53.868;10.728;2023-03-29T10:10:58;8.30;99.90
70368;DHT22;57789;53.868;10.728;2023-03-29T10:13:33;8.50;99.90
70368;DHT22;57789;53.868;10.728;2023-03-29T10:18:29;8.60;99.90
70368;DHT22;57789;53.868;10.728;2023-03-29T10:20:59;8.80;99.90
70368;DHT22;57789;53.868;10.728;2023-03-29T10:23:32;8.90;99.90
70368;DHT22;57789;53.868;10.728;2023-03-29T10:26:00;9.00;99.90
70368;DHT22;57789;53.868;10.728;2023-03-29T10:28:30;9.40;99.90
70368;DHT22;57789;53.868;10.728;2023-03-29T10:30:58;9.70;99.90
70368;DHT22;57789;53.868;10.728;2023-03-29T10:33:30;9.90;99.90
70368;DHT22;57789;53.868;10.728;2023-03-29T10:35:56;9.70;99.90
70368;DHT22;57789;53.868;10.728;2023-03-29T10:38:25;9.70;99.90
70368;DHT22;57789;53.868;10.728;2023-03-29T10:40:53;9.80;99.90
70368;DHT22;57789;53.868;10.728;2023-03-29T10:43:22;9.90;99.90
70368;DHT22;57789;53.868;10.728;2023-03-29T10:46:04;9.80;99.90
70368;DHT22;57789;53.868;10.728;2023-03-29T10:48:33;9.80;99.90
70368;DHT22;57789;53.868;10.728;2023-03-29T10:51:00;9.70;99.90
70368;DHT22;57789;53.868;10.728;2023-03-29T10:53:35;9.60;99.90
70368;DHT22;57789;53.868;10.728;2023-03-29T10:58:55;9.70;99.90
70368;DHT22;57789;53.868;10.728;2023-03-29T11:07:15;9.90;99.90
70368;DHT22;57789;53.868;10.728;2023-03-29T11:10:03;10.00;99.90
70368;DHT22;57789;53.868;10.728;2023-03-29T11:15:28;9.60;99.90
70368;DHT22;57789;53.868;10.728;2023-03-29T11:23:58;9.50;99.90
70368;DHT22;57789;53.868;10.728;2023-03-29T11:26:32;9.60;99.90
70368;DHT22;57789;53.868;10.728;2023-03-29T11:40:09;10.00;99.90
70368;DHT22;57789;53.868;10.728;2023-03-29T11:42:44;10.40;99.90
70368;DHT22;57789;53.868;10.728;2023-03-29T11:45:15;10.50;99.90
70368;DHT22;57789;53.868;10.728;2023-03-29T11:47:43;10.80;99.90
70368;DHT22;57789;53.868;10.728;2023-03-29T11:52:48;11.60;99.90
70368;DHT22;57789;53.868;10.728;2023-03-29T11:55:16;11.70;99.90
70368;DHT22;57789;53.868;10.728;2023-03-29T11:57:58;11.40;99.90
70368;DHT22;57789;53.868;10.728;2023-03-29T12:00:31;11.10;99.90
70368;DHT22;57789;53.868;10.728;2023-03-29T12:03:12;10.70;99.90
70368;DHT22;57789;53.868;10.728;2023-03-29T12:05:54;10.60;99.90
70368;DHT22;57789;53.868;10.728;2023-03-29T12:08:25;10.50;99.90
70368;DHT22;57789;53.868;10.728;2023-03-29T12:11:06;10.50;99.90
70368;DHT22;57789;53.868;10.728;2023-03-29T12:13:37;10.60;99.90
70368;DHT22;57789;53.868;10.728;2023-03-29T12:16:15;10.60;99.90
70368;DHT22;57789;53.868;10.728;2023-03-29T12:18:45;10.30;99.90
70368;DHT22;57789;53.868;10.728;2023-03-29T12:21:15;10.20;99.90
70368;DHT22;57789;53.868;10.728;2023-03-29T12:23:44;9.90;99.90
70368;DHT22;57789;53.868;10.728;2023-03-29T12:45:28;10.00;99.90
70368;DHT22;57789;53.868;10.728;2023-03-29T12:47:55;10.10;99.90
70368;DHT22;57789;53.868;10.728;2023-03-29T12:50:47;10.10;99.90
70368;DHT22;57789;53.868;10.728;2023-03-29T12:53:26;10.40;99.90
70368;DHT22;57789;53.868;10.728;2023-03-29T13:01:25;10.20;99.90
70368;DHT22;57789;53.868;10.728;2023-03-29T13:06:31;10.20;99.90
70368;DHT22;57789;53.868;10.728;2023-03-29T13:09:00;10.00;99.90
70368;DHT22;57789;53.868;10.728;2023-03-29T13:11:34;9.80;99.90
70368;DHT22;57789;53.868;10.728;2023-03-29T13:14:12;9.90;99.90
70368;DHT22;57789;53.868;10.728;2023-03-29T13:16:39;10.00;99.90
70368;DHT22;57789;53.868;10.728;2023-03-29T13:22:09;10.10;99.90
70368;DHT22;57789;53.868;10.728;2023-03-29T13:38:24;10.00;99.90
70368;DHT22;57789;53.868;10.728;2023-03-29T13:43:19;10.00;99.90
70368;DHT22;57789;53.868;10.728;2023-03-29T13:51:26;9.90;99.90
70368;DHT22;57789;53.868;10.728;2023-03-29T13:54:27;9.80;99.90
70368;DHT22;57789;53.868;10.728;2023-03-29T13:57:12;9.70;99.90
70368;DHT22;57789;53.868;10.728;2023-03-29T14:04:54;10.00;99.90
70368;DHT22;57789;53.868;10.728;2023-03-29T14:07:21;10.10;99.90
70368;DHT22;57789;53.868;10.728;2023-03-29T14:09:52;10.20;99.90
70368;DHT22;57789;53.868;10.728;2023-03-29T14:12:18;10.20;99.90
70368;DHT22;57789;53.868;10.728;2023-03-29T14:14:44;10.30;99.90
70368;DHT22;57789;53.868;10.728;2023-03-29T14:17:18;10.30;99.90
70368;DHT22;57789;53.868;10.728;2023-03-29T14:19:45;10.40;99.90
70368;DHT22;57789;53.868;10.728;2023-03-29T14:22:18;10.40;99.90
70368;DHT22;57789;53.868;10.728;2023-03-29T14:24:52;10.50;99.90
70368;DHT22;57789;53.868;10.728;2023-03-29T14:27:19;10.30;99.90
70368;DHT22;57789;53.868;10.728;2023-03-29T14:29:47;10.30;99.90
70368;DHT22;57789;53.868;10.728;2023-03-29T14:32:18;10.10;99.90
70368;DHT22;57789;53.868;10.728;2023-03-29T14:34:48;10.10;99.90
70368;DHT22;57789;53.868;10.728;2023-03-29T14:37:23;10.10;99.90
70368;DHT22;57789;53.868;10.728;2023-03-29T14:39:49;10.20;99.90
70368;DHT22;57789;53.868;10.728;2023-03-29T14:42:18;10.30;99.90
70368;DHT22;57789;53.868;10.728;2023-03-29T14:44:48;10.50;99.90
70368;DHT22;57789;53.868;10.728;2023-03-29T14:47:29;10.70;99.90
70368;DHT22;57789;53.868;10.728;2023-03-29T14:49:57;10.90;99.90
70368;DHT22;57789;53.868;10.728;2023-03-29T14:52:26;11.00;99.90
70368;DHT22;57789;53.868;10.728;2023-03-29T14:54:54;10.90;99.90
70368;DHT22;57789;53.868;10.728;2023-03-29T14:57:23;11.10;99.90
70368;DHT22;57789;53.868;10.728;2023-03-29T15:00:00;11.10;99.90
70368;DHT22;57789;53.868;10.728;2023-03-29T15:04:57;11.10;99.90
70368;DHT22;57789;53.868;10.728;2023-03-29T15:07:27;11.00;99.90
70368;DHT22;57789;53.868;10.728;2023-03-29T15:09:55;11.00;99.90
70368;DHT22;57789;53.868;10.728;2023-03-29T15:12:21;10.90;99.90
70368;DHT22;57789;53.868;10.728;2023-03-29T15:14:51;11.00;99.90
70368;DHT22;57789;53.868;10.728;2023-03-29T15:17:25;11.00;99.90
70368;DHT22;57789;53.868;10.728;2023-03-29T15:20:00;11.00;99.90
70368;DHT22;57789;53.868;10.728;2023-03-29T15:22:34;11.00;99.90
70368;DHT22;57789;53.868;10.728;2023-03-29T15:25:00;11.00;99.90
70368;DHT22;57789;53.868;10.728;2023-03-29T15:27:26;11.00;99.90
70368;DHT22;57789;53.868;10.728;2023-03-29T15:29:59;11.00;99.90
70368;DHT22;57789;53.868;10.728;2023-03-29T15:32:34;11.00;99.90
70368;DHT22;57789;53.868;10.728;2023-03-29T15:35:04;11.00;99.90
70368;DHT22;57789;53.868;10.728;2023-03-29T15:37:34;11.00;99.90
70368;DHT22;57789;53.868;10.728;2023-03-29T15:40:01;11.10;99.90
70368;DHT22;57789;53.868;10.728;2023-03-29T15:42:34;11.00;99.90
70368;DHT22;57789;53.868;10.728;2023-03-29T15:45:02;11.00;99.90
70368;DHT22;57789;53.868;10.728;2023-03-29T15:47:30;11.00;99.90
70368;DHT22;57789;53.868;10.728;2023-03-29T15:49:56;11.00;99.90
70368;DHT22;57789;53.868;10.728;2023-03-29T15:52:21;11.00;99.90
70368;DHT22;57789;53.868;10.728;2023-03-29T15:54:47;11.10;99.90
70368;DHT22;57789;53.868;10.728;2023-03-29T15:57:13;11.20;99.90
70368;DHT22;57789;53.868;10.728;2023-03-29T15:59:41;11.20;99.90
70368;DHT22;57789;53.868;10.728;2023-03-29T16:02:12;11.20;99.90
70368;DHT22;57789;53.868;10.728;2023-03-29T16:04:40;11.00;99.90
70368;DHT22;57789;53.868;10.728;2023-03-29T16:07:09;11.00;99.90
70368;DHT22;57789;53.868;10.728;2023-03-29T16:09:37;10.90;99.90
70368;DHT22;57789;53.868;10.728;2023-03-29T16:12:03;10.90;99.90
70368;DHT22;57789;53.868;10.728;2023-03-29T16:14:29;10.80;99.90
70368;DHT22;57789;53.868;10.728;2023-03-29T16:16:56;10.80;99.90
70368;DHT22;57789;53.868;10.728;2023-03-29T16:19:24;10.90;99.90
70368;DHT22;57789;53.868;10.728;2023-03-29T16:21:50;10.80;99.90
70368;DHT22;57789;53.868;10.728;2023-03-29T16:24:20;10.80;99.90
70368;DHT22;57789;53.868;10.728;2023-03-29T16:26:47;10.80;99.90
70368;DHT22;57789;53.868;10.728;2023-03-29T16:29:13;10.80;99.90
70368;DHT22;57789;53.868;10.728;2023-03-29T16:31:44;10.70;99.90
70368;DHT22;57789;53.868;10.728;2023-03-29T16:34:11;10.70;99.90
70368;DHT22;57789;53.868;10.728;2023-03-29T16:36:41;10.70;99.90
70368;DHT22;57789;53.868;10.728;2023-03-29T16:39:08;10.80;99.90
70368;DHT22;57789;53.868;10.728;2023-03-29T16:41:35;10.60;99.90
70368;DHT22;57789;53.868;10.728;2023-03-29T16:44:02;10.70;99.90
70368;DHT22;57789;53.868;10.728;2023-03-29T16:46:28;10.70;99.90
70368;DHT22;57789;53.868;10.728;2023-03-29T16:48:53;10.70;99.90
70368;DHT22;57789;53.868;10.728;2023-03-29T16:51:20;10.70;99.90
70368;DHT22;57789;53.868;10.728;2023-03-29T16:53:46;10.60;99.90
70368;DHT22;57789;53.868;10.728;2023-03-29T16:56:12;10.60;99.90
70368;DHT22;57789;53.868;10.728;2023-03-29T16:58:39;10.70;99.90
70368;DHT22;57789;53.868;10.728;2023-03-29T17:01:15;10.70;99.90
70368;DHT22;57789;53.868;10.728;2023-03-29T17:03:41;10.60;99.90
70368;DHT22;57789;53.868;10.728;2023-03-29T17:06:09;10.70;99.90
70368;DHT22;57789;53.868;10.728;2023-03-29T17:08:35;10.60;99.90
70368;DHT22;57789;53.868;10.728;2023-03-29T17:11:02;10.60;99.90
70368;DHT22;57789;53.868;10.728;2023-03-29T17:13:28;10.60;99.90
70368;DHT22;57789;53.868;10.728;2023-03-29T17:15:55;10.60;99.90
70368;DHT22;57789;53.868;10.728;2023-03-29T17:18:22;10.60;99.90
70368;DHT22;57789;53.868;10.728;2023-03-29T17:20:54;10.60;99.90
70368;DHT22;57789;53.868;10.728;2023-03-29T17:23:21;10.60;99.90
70368;DHT22;57789;53.868;10.728;2023-03-29T17:25:47;10.50;99.90
70368;DHT22;57789;53.868;10.728;2023-03-29T17:28:13;10.50;99.90
70368;DHT22;57789;53.868;10.728;2023-03-29T17:30:39;10.50;99.90
70368;DHT22;57789;53.868;10.728;2023-03-29T17:33:05;10.40;99.90
70368;DHT22;57789;53.868;10.728;2023-03-29T17:35:32;10.40;99.90
70368;DHT22;57789;53.868;10.728;2023-03-29T17:37:58;10.40;99.90
70368;DHT22;57789;53.868;10.728;2023-03-29T17:40:25;10.50;99.90
70368;DHT22;57789;53.868;10.728;2023-03-29T17:42:51;10.40;99.90
70368;DHT22;57789;53.868;10.728;2023-03-29T17:45:17;10.40;99.90
70368;DHT22;57789;53.868;10.728;2023-03-29T17:47:44;10.30;99.90